Time;durP1;ratioP1;P1;durP2;ratioP2;P2;SDS_P1;SDS_P2;PMS_P1;PMS_P2;Temp;Humidity;BMP_temperature;BMP_pressure;BME280_temperature;BME280_humidity;BME280_pressure;Samples;Min_cycle;Max_cycle;Signal;HPM_P1;HPM_P2
2022/07/10 00:00:15;;;;;;;6.15;1.90;;;;;;;19.87;nan;100398.72;5030809;28;20511;-63
2022/07/10 00:02:42;;;;;;;6.20;2.03;;;;;;;19.76;nan;100390.06;5031300;28;20052;-65
2022/07/10 00:05:08;;;;;;;6.57;1.70;;;;;;;19.76;nan;100393.53;5027416;28;20041;-66
2022/07/10 00:07:33;;;;;;;4.10;1.90;;;;;;;;;;5025550;28;20037;-72
2022/07/10 00:09:59;;;;;;;6.88;1.77;;;;;;;19.75;nan;100381.25;5030687;28;20094;-71
2022/07/10 00:12:25;;;;;;;3.75;1.60;;;;;;;19.79;nan;100388.69;5025403;28;20187;-64
2022/07/10 00:14:51;;;;;;;3.47;1.67;;;;;;;19.79;nan;100375.34;5026838;28;20045;-63
2022/07/10 00:17:16;;;;;;;4.05;1.83;;;;;;;19.50;nan;100334.25;5027631;28;20041;-72
2022/07/10 00:19:42;;;;;;;6.53;1.75;;;;;;;;;;5022439;28;20124;-71
2022/07/10 00:22:07;;;;;;;3.25;1.70;;;;;;;19.69;nan;100371.72;5026055;28;20384;-72
2022/07/10 00:24:33;;;;;;;11.45;2.00;;;;;;;19.65;nan;100388.56;5024967;28;20395;-73
2022/07/10 00:26:59;;;;;;;3.05;1.75;;;;;;;19.46;nan;100295.03;5022990;28;20181;-73
2022/07/10 00:29:24;;;;;;;8.07;2.58;;;;;;;19.56;nan;100385.72;5031689;28;20025;-72
2022/07/10 00:31:50;;;;;;;4.82;1.90;;;;;;;19.48;nan;100352.44;5029627;28;20036;-71
2022/07/10 00:34:15;;;;;;;6.20;1.90;;;;;;;19.48;nan;100320.38;5043978;28;20033;-71
2022/07/10 00:36:41;;;;;;;2.60;1.60;;;;;;;19.29;nan;100343.56;5036396;28;20029;-71
2022/07/10 00:39:06;;;;;;;3.47;1.70;;;;;;;19.41;nan;100367.22;5040647;28;20041;-72
2022/07/10 00:41:32;;;;;;;3.83;2.08;;;;;;;19.33;nan;100356.06;5035307;28;20038;-71
2022/07/10 00:44:01;;;;;;;5.93;1.75;;;;;;;;;;5044899;28;20480;-72
2022/07/10 00:46:27;;;;;;;6.22;1.95;;;;;;;19.21;nan;100322.84;5042183;28;20034;-72
2022/07/10 00:48:54;;;;;;;4.80;1.98;;;;;;;19.20;nan;100372.78;5044064;28;20124;-69
2022/07/10 00:51:21;;;;;;;3.95;1.80;;;;;;;19.16;nan;100366.41;5035197;28;20045;-72
2022/07/10 00:53:51;;;;;;;2.78;2.00;;;;;;;18.97;nan;100330.84;5033169;28;20033;-72
2022/07/10 00:56:22;;;;;;;4.38;1.90;;;;;;;19.04;nan;100358.00;5033709;28;20445;-72
2022/07/10 00:58:48;;;;;;;3.08;2.00;;;;;;;18.95;nan;100317.00;5031310;28;20042;-73
2022/07/10 01:01:14;;;;;;;6.25;2.08;;;;;;;18.86;nan;100330.94;5032091;28;20037;-72
2022/07/10 01:03:39;;;;;;;4.35;1.90;;;;;;;;;;5027478;28;20040;-73
2022/07/10 01:06:05;;;;;;;3.88;1.90;;;;;;;;;;5032607;28;20025;-72
2022/07/10 01:08:30;;;;;;;2.97;1.92;;;;;;;18.71;nan;100347.06;5034112;28;20025;-72
2022/07/10 01:10:57;;;;;;;5.47;1.88;;;;;;;18.68;nan;100356.41;5031276;28;20116;-72
2022/07/10 01:13:22;;;;;;;9.00;2.05;;;;;;;18.65;nan;100350.81;5025607;28;20542;-72
2022/07/10 01:15:48;;;;;;;6.18;2.00;;;;;;;18.60;nan;100342.88;5026682;28;20132;-71
2022/07/10 01:18:14;;;;;;;6.40;2.00;;;;;;;18.50;nan;100333.09;5026642;28;20546;-71
2022/07/10 01:20:40;;;;;;;3.20;1.77;;;;;;;18.39;nan;100329.72;5023773;28;20034;-71
2022/07/10 01:23:06;;;;;;;4.90;1.90;;;;;;;18.38;nan;100384.09;5023903;28;20036;-71
2022/07/10 01:25:31;;;;;;;2.78;1.90;;;;;;;18.35;nan;100383.88;5029701;28;20136;-64
2022/07/10 01:27:58;;;;;;;5.97;2.03;;;;;;;18.26;nan;100285.81;5025139;28;20026;-64
2022/07/10 01:30:24;;;;;;;6.20;1.88;;;;;;;18.26;nan;100328.47;5019829;28;20057;-65
2022/07/10 01:32:50;;;;;;;5.63;1.98;;;;;;;;;;5024630;28;20056;-65
2022/07/10 01:35:15;;;;;;;3.55;1.90;;;;;;;18.13;nan;100344.31;5025104;28;20487;-64
2022/07/10 01:37:41;;;;;;;3.58;1.60;;;;;;;18.07;nan;100336.31;5027292;28;20643;-65
2022/07/10 01:40:08;;;;;;;8.38;2.13;;;;;;;18.11;nan;100287.81;5025548;28;20029;-64
2022/07/10 01:42:33;;;;;;;3.88;2.00;;;;;;;18.06;nan;100313.41;5028946;28;20124;-65
2022/07/10 01:44:59;;;;;;;3.40;1.73;;;;;;;18.03;nan;100327.31;5025078;28;20120;-64
2022/07/10 01:47:27;;;;;;;3.67;1.77;;;;;;;18.01;nan;100332.09;5027713;28;20124;-65
2022/07/10 01:49:53;;;;;;;2.97;1.63;;;;;;;;;;5028409;28;20495;-72
2022/07/10 01:52:19;;;;;;;4.18;1.80;;;;;;;17.98;nan;100295.38;5020461;28;20040;-72
2022/07/10 01:54:45;;;;;;;3.08;1.70;;;;;;;;;;5027439;28;20040;-72
2022/07/10 01:57:11;;;;;;;4.25;1.70;;;;;;;17.92;nan;100240.50;5019362;28;20384;-72
2022/07/10 01:59:36;;;;;;;2.38;1.50;;;;;;;;;;5030332;28;20082;-73
2022/07/10 02:02:01;;;;;;;5.07;1.83;;;;;;;17.83;nan;100330.06;5026144;28;20168;-72
2022/07/10 02:04:42;;;;;;;4.13;1.50;;;;;;;17.78;nan;100295.44;5037449;28;20021;-71
2022/07/10 02:07:12;;;;;;;2.38;1.80;;;;;;;;;;5029355;28;20030;-72
2022/07/10 02:09:40;;;;;;;7.47;1.80;;;;;;;17.75;nan;100312.78;5028451;28;20376;-71
2022/07/10 02:12:08;;;;;;;4.85;1.70;;;;;;;17.74;nan;100363.66;5025395;28;20531;-70
2022/07/10 02:14:34;;;;;;;5.80;1.50;;;;;;;;;;5026419;28;20056;-73
2022/07/10 02:16:59;;;;;;;3.88;1.40;;;;;;;;;;5028770;28;20034;-71
2022/07/10 02:19:25;;;;;;;3.10;1.70;;;;;;;17.55;nan;100273.75;5028966;28;20034;-71
2022/07/10 02:21:51;;;;;;;7.63;1.70;;;;;;;17.65;nan;100278.22;5033269;28;20302;-71
2022/07/10 02:24:16;;;;;;;3.92;1.60;;;;;;;;;;5028696;28;20518;-73
2022/07/10 02:26:42;;;;;;;4.10;1.30;;;;;;;;;;5027280;28;20480;-72
2022/07/10 02:29:07;;;;;;;4.50;1.40;;;;;;;17.63;nan;100267.84;5028437;28;20022;-74
2022/07/10 02:31:34;;;;;;;3.60;2.05;;;;;;;17.54;nan;100327.25;5029045;28;20045;-72
2022/07/10 02:34:00;;;;;;;4.03;1.60;;;;;;;;;;5026556;28;20097;-63
2022/07/10 02:36:25;;;;;;;4.07;1.85;;;;;;;17.43;nan;100274.06;5019844;28;20038;-65
2022/07/10 02:38:50;;;;;;;3.45;1.75;;;;;;;;;;5026518;28;20042;-64
2022/07/10 02:41:15;;;;;;;4.57;1.80;;;;;;;;;;5024183;28;20180;-65
2022/07/10 02:43:41;;;;;;;7.67;2.10;;;;;;;;;;5028953;28;20354;-64
2022/07/10 02:46:06;;;;;;;3.85;1.90;;;;;;;17.01;nan;100279.81;5029946;28;20479;-63
2022/07/10 02:48:32;;;;;;;6.45;2.30;;;;;;;;;;5043255;28;20061;-64
2022/07/10 02:50:57;;;;;;;4.78;2.05;;;;;;;;;;5028985;28;20372;-65
2022/07/10 02:53:22;;;;;;;6.93;2.20;;;;;;;;;;5026733;28;20091;-64
2022/07/10 02:55:47;;;;;;;2.88;2.00;;;;;;;;;;5019560;28;20271;-65
2022/07/10 02:58:15;;;;;;;6.13;1.97;;;;;;;;;;5030746;28;20033;-63
2022/07/10 03:00:41;;;;;;;9.65;2.40;;;;;;;;;;5025207;28;20447;-64
2022/07/10 03:03:06;;;;;;;7.05;2.72;;;;;;;;;;5029676;28;20037;-64
2022/07/10 03:05:31;;;;;;;9.17;3.90;;;;;;;;;;5024044;28;20096;-64
2022/07/10 03:07:57;;;;;;;6.05;4.15;;;;;;;;;;5029816;28;20756;-63
2022/07/10 03:10:22;;;;;;;5.93;3.38;;;;;;;;;;5027370;28;20033;-64
2022/07/10 03:12:47;;;;;;;9.60;3.47;;;;;;;;;;5028529;28;20045;-64
2022/07/10 03:15:13;;;;;;;13.23;6.97;;;;;;;;;;5029367;28;20652;-64
2022/07/10 03:17:39;;;;;;;6.00;4.25;;;;;;;;;;5031250;28;20437;-71
2022/07/10 03:20:06;;;;;;;9.20;4.28;;;;;;;15.82;nan;100336.63;5023771;28;20037;-72
2022/07/10 03:22:32;;;;;;;6.93;2.95;;;;;;;;;;5030095;28;20059;-72
2022/07/10 03:24:57;;;;;;;10.68;3.30;;;;;;;;;;5029956;28;20044;-71
2022/07/10 03:27:23;;;;;;;4.60;1.90;;;;;;;;;;5029837;28;20442;-72
2022/07/10 03:29:48;;;;;;;4.30;1.90;;;;;;;;;;5032337;28;20036;-71
2022/07/10 03:32:13;;;;;;;7.72;2.55;;;;;;;;;;5031499;28;20585;-73
2022/07/10 03:34:39;;;;;;;5.72;2.30;;;;;;;;;;5031592;28;20041;-72
2022/07/10 03:37:04;;;;;;;5.37;2.30;;;;;;;;;;5032995;28;20037;-73
2022/07/10 03:39:30;;;;;;;5.68;3.13;;;;;;;;;;5028705;28;20298;-72
2022/07/10 03:41:55;;;;;;;7.43;2.35;;;;;;;;;;5027460;28;20037;-71
2022/07/10 03:44:20;;;;;;;6.70;2.20;;;;;;;;;;5027079;28;20041;-71
2022/07/10 03:46:45;;;;;;;4.40;2.70;;;;;;;;;;5027841;28;20033;-71
2022/07/10 03:49:11;;;;;;;9.00;3.10;;;;;;;;;;5026703;28;20038;-72
2022/07/10 03:51:36;;;;;;;6.63;2.97;;;;;;;;;;5027567;28;20056;-73
2022/07/10 03:54:01;;;;;;;5.87;2.90;;;;;;;;;;5027107;28;20453;-72
2022/07/10 03:59:11;;;;;;;3.75;2.47;;;;;;;;;;5025317;28;20034;-72
2022/07/10 04:01:36;;;;;;;5.45;2.60;;;;;;;;;;5030292;28;20038;-72
2022/07/10 04:04:01;;;;;;;9.60;2.43;;;;;;;;;;5030977;28;20072;-66
2022/07/10 04:06:27;;;;;;;4.45;2.10;;;;;;;;;;5028764;28;20262;-65
2022/07/10 04:08:53;;;;;;;5.28;2.55;;;;;;;;;;5028507;28;20034;-64
2022/07/10 04:11:18;;;;;;;3.83;2.20;;;;;;;;;;5027907;28;20034;-64
2022/07/10 04:13:43;;;;;;;4.63;2.13;;;;;;;;;;5024879;28;20064;-65
2022/07/10 04:16:12;;;;;;;5.53;2.30;;;;;;;;;;5024341;28;20913;-64
2022/07/10 04:18:41;;;;;;;5.25;2.20;;;;;;;;;;5029518;28;20294;-65
2022/07/10 04:21:07;;;;;;;6.35;2.10;;;;;;;;;;5028455;28;20037;-71
2022/07/10 04:23:33;;;;;;;3.78;2.33;;;;;;;;;;5026980;28;20087;-72
2022/07/10 04:25:58;;;;;;;4.53;2.13;;;;;;;;;;5021533;28;20104;-72
2022/07/10 04:28:23;;;;;;;6.05;2.60;;;;;;;;;;5040538;28;20392;-72
2022/07/10 04:30:49;;;;;;;5.67;2.40;;;;;;;;;;5030024;28;20495;-73
2022/07/10 04:33:14;;;;;;;5.47;2.53;;;;;;;;;;5024375;28;20042;-72
2022/07/10 04:35:39;;;;;;;3.53;2.40;;;;;;;;;;5013817;28;20041;-71
2022/07/10 04:38:04;;;;;;;8.47;2.43;;;;;;;;;;5029006;28;20594;-73
2022/07/10 04:40:30;;;;;;;3.65;2.60;;;;;;;;;;5029378;28;20377;-73
2022/07/10 04:42:55;;;;;;;4.13;2.00;;;;;;;;;;5025123;28;20049;-74
2022/07/10 04:45:20;;;;;;;4.22;2.15;;;;;;;;;;5010373;28;20033;-74
2022/07/10 04:47:46;;;;;;;8.85;2.38;;;;;;;;;;5030571;28;20048;-74
2022/07/10 04:50:11;;;;;;;8.87;2.80;;;;;;;;;;5028138;28;20437;-74
2022/07/10 04:52:36;;;;;;;4.85;2.47;;;;;;;;;;5031391;28;20270;-74
2022/07/10 04:55:02;;;;;;;6.75;2.30;;;;;;;16.88;nan;100320.25;5031083;28;20043;-74
2022/07/10 04:57:28;;;;;;;3.05;2.22;;;;;;;16.98;nan;100320.25;5044510;28;20069;-75
2022/07/10 04:59:53;;;;;;;6.22;2.72;;;;;;;;;;5053536;28;20037;-74
2022/07/10 05:02:18;;;;;;;5.60;2.50;;;;;;;;;;5054272;28;20221;-74
2022/07/10 05:04:44;;;;;;;5.53;2.50;;;;;;;;;;5055624;28;20029;-75
2022/07/10 05:07:09;;;;;;;4.43;2.40;;;;;;;;;;5051321;28;20044;-73
2022/07/10 05:09:34;;;;;;;10.88;2.40;;;;;;;;;;5048589;28;20129;-73
2022/07/10 05:12:00;;;;;;;6.07;2.50;;;;;;;;;;5045928;28;20046;-74
2022/07/10 05:14:25;;;;;;;4.35;2.03;;;;;;;17.31;nan;100312.69;5050961;28;21065;-75
2022/07/10 05:16:51;;;;;;;5.93;2.50;;;;;;;;;;5034795;28;20037;-75
2022/07/10 05:19:16;;;;;;;10.13;2.43;;;;;;;;;;5038346;28;20029;-73
2022/07/10 05:21:41;;;;;;;4.25;2.40;;;;;;;17.31;nan;100292.22;5040276;28;20132;-66
2022/07/10 05:24:07;;;;;;;3.28;2.47;;;;;;;;;;5025706;28;20026;-66
2022/07/10 05:26:32;;;;;;;5.22;2.60;;;;;;;;;;5026454;28;20399;-65
2022/07/10 05:28:57;;;;;;;5.63;2.60;;;;;;;17.60;nan;100296.88;5026710;28;20036;-66
2022/07/10 05:31:23;;;;;;;10.32;2.92;;;;;;;;;;5026534;28;20266;-66
2022/07/10 05:33:48;;;;;;;4.28;2.53;;;;;;;;;;5026801;28;20049;-65
2022/07/10 05:36:13;;;;;;;7.20;2.63;;;;;;;17.41;nan;100312.69;5024705;28;20083;-64
2022/07/10 05:38:39;;;;;;;8.07;2.25;;;;;;;;;;5025587;28;20287;-65
2022/07/10 05:41:04;;;;;;;4.28;2.30;;;;;;;17.40;nan;100268.47;5021559;28;20373;-65
2022/07/10 05:43:30;;;;;;;5.60;2.60;;;;;;;;;;5027402;28;20079;-65
2022/07/10 05:45:55;;;;;;;6.82;2.35;;;;;;;17.46;nan;100302.00;5026874;28;20038;-71
2022/07/10 05:48:20;;;;;;;6.20;2.20;;;;;;;;;;5033168;28;20033;-71
2022/07/10 05:50:46;;;;;;;7.07;2.50;;;;;;;17.59;nan;100288.09;5029400;28;20037;-71
2022/07/10 05:53:11;;;;;;;6.18;2.70;;;;;;;;;;5022095;28;20270;-71
2022/07/10 05:55:37;;;;;;;6.78;2.40;;;;;;;;;;5025678;28;20033;-72
2022/07/10 05:58:02;;;;;;;6.10;2.60;;;;;;;;;;5037529;28;20038;-71
2022/07/10 06:00:27;;;;;;;5.77;2.70;;;;;;;;;;5023708;28;20656;-71
2022/07/10 06:02:53;;;;;;;3.90;2.35;;;;;;;;;;5025619;28;20290;-73
2022/07/10 06:05:18;;;;;;;5.60;2.60;;;;;;;;;;5028813;28;20183;-70
2022/07/10 06:07:43;;;;;;;8.45;3.03;;;;;;;;;;5026486;28;20041;-72
2022/07/10 06:10:09;;;;;;;7.83;2.47;;;;;;;;;;5024492;28;20488;-72
2022/07/10 06:12:34;;;;;;;4.10;2.50;;;;;;;;;;5024630;28;20313;-71
2022/07/10 06:14:59;;;;;;;4.70;2.50;;;;;;;;;;5023754;28;20391;-70
2022/07/10 06:17:24;;;;;;;4.30;2.40;;;;;;;;;;5022797;28;20056;-71
2022/07/10 06:19:50;;;;;;;4.30;2.53;;;;;;;;;;5002592;28;20069;-71
2022/07/10 06:22:30;;;;;;;4.85;2.35;;;;;;;;;;5020148;28;20049;-72
2022/07/10 06:24:56;;;;;;;7.03;2.63;;;;;;;;;;5025085;28;20034;-71
2022/07/10 06:27:22;;;;;;;5.07;2.35;;;;;;;18.04;nan;100250.81;5027346;28;20083;-71
2022/07/10 06:29:47;;;;;;;3.03;2.45;;;;;;;;;;5023969;28;20041;-71
2022/07/10 06:32:13;;;;;;;4.22;2.13;;;;;;;;;;5026799;28;20761;-70
2022/07/10 06:34:38;;;;;;;2.53;2.27;;;;;;;;;;5025009;28;20467;-70
2022/07/10 06:37:03;;;;;;;5.88;2.50;;;;;;;;;;5027432;28;20108;-71
2022/07/10 06:39:35;;;;;;;4.15;2.20;;;;;;;18.34;nan;100247.13;5032116;28;20037;-72
2022/07/10 06:42:05;;;;;;;3.95;2.30;;;;;;;18.39;nan;100231.06;5024371;28;20118;-71
2022/07/10 06:44:30;;;;;;;8.68;1.90;;;;;;;18.45;nan;100295.81;5029815;28;20037;-69
2022/07/10 06:49:42;;;;;;;4.32;1.90;;;;;;;18.38;nan;100250.81;5029767;28;20033;-73
2022/07/10 06:52:07;;;;;;;5.65;2.30;;;;;;;18.45;nan;100253.16;5031077;28;20025;-73
2022/07/10 06:54:33;;;;;;;2.75;2.20;;;;;;;;;;5026186;28;20040;-73
2022/07/10 06:56:58;;;;;;;4.60;2.00;;;;;;;;;;5036578;28;20167;-71
2022/07/10 06:59:23;;;;;;;2.95;2.10;;;;;;;;;;5034986;28;20048;-73
2022/07/10 07:01:49;;;;;;;6.72;2.72;;;;;;;18.64;nan;100259.34;5029703;28;20037;-72
2022/07/10 07:04:14;;;;;;;7.35;2.30;;;;;;;18.72;nan;100255.28;5027707;28;20216;-70
2022/07/10 07:06:40;;;;;;;3.25;2.17;;;;;;;18.64;nan;100192.69;5034736;28;20029;-73
2022/07/10 07:09:05;;;;;;;6.07;2.22;;;;;;;18.66;nan;100251.88;5027190;28;20029;-73
2022/07/10 07:11:31;;;;;;;5.68;2.20;;;;;;;18.65;nan;100266.31;5032364;28;20454;-72
2022/07/10 07:13:56;;;;;;;6.05;2.50;;;;;;;18.61;nan;100235.13;5027365;28;20052;-73
2022/07/10 07:16:37;;;;;;;6.35;2.60;;;;;;;18.73;nan;100256.88;5028285;28;20034;-74
2022/07/10 07:19:04;;;;;;;5.80;2.50;;;;;;;18.71;nan;100237.69;5024680;28;20115;-74
2022/07/10 07:24:14;;;;;;;6.10;2.38;;;;;;;18.94;nan;100304.72;5029494;28;20389;-74
2022/07/10 07:26:39;;;;;;;5.07;2.17;;;;;;;19.09;nan;100254.63;5030524;28;20033;-72
2022/07/10 07:29:05;;;;;;;7.93;2.72;;;;;;;19.27;nan;100254.94;5025267;28;20069;-73
2022/07/10 07:31:30;;;;;;;5.57;2.38;;;;;;;19.35;nan;100222.28;5027634;28;20034;-74
2022/07/10 07:33:55;;;;;;;3.88;2.47;;;;;;;19.34;nan;100240.16;5027976;28;20056;-73
2022/07/10 07:36:21;;;;;;;5.78;2.35;;;;;;;19.46;nan;100253.09;5034318;28;20357;-74
2022/07/10 07:38:46;;;;;;;4.13;2.40;;;;;;;19.52;nan;100251.97;5025422;28;20032;-71
2022/07/10 07:41:11;;;;;;;7.35;2.30;;;;;;;19.67;nan;100258.97;5030106;28;20034;-70
2022/07/10 07:43:37;;;;;;;5.05;2.50;;;;;;;19.75;nan;100239.66;5031467;28;20068;-70
2022/07/10 07:46:02;;;;;;;3.70;2.20;;;;;;;19.85;nan;100261.94;5030318;28;20450;-72
2022/07/10 07:48:28;;;;;;;4.85;2.20;;;;;;;;;;5027294;28;20041;-72
2022/07/10 07:50:53;;;;;;;5.07;2.97;;;;;;;20.08;nan;100169.38;5032747;28;20045;-68
2022/07/10 07:53:18;;;;;;;6.90;2.28;;;;;;;20.19;nan;100238.41;5028245;28;20037;-67
2022/07/10 07:55:44;;;;;;;5.35;2.63;;;;;;;20.35;nan;100249.66;5030973;28;20731;-69
2022/07/10 07:58:09;;;;;;;2.65;2.30;;;;;;;20.54;nan;100227.38;5028583;28;20480;-68
2022/07/10 08:00:35;;;;;;;6.20;2.38;;;;;;;20.63;nan;100248.94;5024606;28;20037;-68
2022/07/10 08:03:00;;;;;;;5.97;2.47;;;;;;;;;;5027865;28;20029;-67
2022/07/10 08:05:26;;;;;;;5.57;2.90;;;;;;;20.72;nan;100247.97;5029918;28;20038;-67
2022/07/10 08:07:58;;;;;;;4.20;2.40;;;;;;;20.75;nan;100254.59;5024898;28;20814;-67
2022/07/10 08:10:27;;;;;;;7.18;2.20;;;;;;;20.87;nan;100256.78;5022298;28;20392;-64
2022/07/10 08:12:52;;;;;;;3.78;2.25;;;;;;;;;;5029118;28;20041;-65
2022/07/10 08:15:21;;;;;;;5.57;2.10;;;;;;;20.99;nan;100263.22;5029329;28;20039;-65
2022/07/10 08:17:48;;;;;;;4.35;2.10;;;;;;;20.99;nan;100257.88;5024956;28;20286;-65
2022/07/10 08:20:14;;;;;;;4.30;2.30;;;;;;;21.04;nan;100228.31;5022908;28;20045;-65
2022/07/10 08:22:42;;;;;;;6.35;2.20;;;;;;;21.11;nan;100251.22;5027717;28;20034;-73
2022/07/10 08:25:09;;;;;;;4.20;2.20;;;;;;;21.28;nan;100235.31;5024092;28;20052;-66
2022/07/10 08:27:35;;;;;;;2.83;2.00;;;;;;;21.28;nan;100288.88;5022414;28;20053;-67
2022/07/10 08:30:00;;;;;;;9.38;2.40;;;;;;;21.36;nan;100237.31;5024745;28;20391;-66
2022/07/10 08:32:27;;;;;;;4.90;2.72;;;;;;;21.36;nan;100221.25;5025925;28;20029;-66
2022/07/10 08:34:53;;;;;;;7.97;2.53;;;;;;;21.42;nan;100241.47;5020444;28;20044;-66
2022/07/10 08:37:19;;;;;;;7.00;2.50;;;;;;;21.48;nan;100222.63;5030390;28;20116;-65
2022/07/10 08:39:45;;;;;;;4.63;2.10;;;;;;;21.53;nan;100243.97;5025597;28;20084;-65
2022/07/10 08:42:11;;;;;;;4.35;2.35;;;;;;;21.63;nan;100238.38;5030323;28;20037;-65
2022/07/10 08:44:37;;;;;;;3.45;2.10;;;;;;;21.64;nan;100234.56;5022434;28;20486;-66
2022/07/10 08:47:04;;;;;;;5.63;2.40;;;;;;;21.67;nan;100215.22;5028320;28;20079;-64
2022/07/10 08:49:31;;;;;;;6.65;2.20;;;;;;;21.83;nan;100255.84;5024714;28;20578;-66
2022/07/10 08:52:13;;;;;;;7.05;2.25;;;;;;;21.91;nan;100311.44;5026451;28;20216;-65
2022/07/10 08:54:38;;;;;;;5.55;2.72;;;;;;;22.08;nan;100271.34;5024177;28;20080;-65
2022/07/10 08:57:05;;;;;;;5.20;2.40;;;;;;;22.18;nan;100250.75;5025770;28;20037;-72
2022/07/10 08:59:30;;;;;;;5.57;2.15;;;;;;;22.21;nan;100299.22;5020223;28;20036;-72
2022/07/10 09:01:57;;;;;;;4.50;2.40;;;;;;;22.28;nan;100264.72;5024414;28;20033;-72
2022/07/10 09:04:25;;;;;;;6.07;2.33;;;;;;;22.35;nan;100225.94;5027457;28;20438;-72
2022/07/10 09:06:52;;;;;;;8.10;2.37;;;;;;;22.49;nan;100234.69;5028912;28;20034;-75
2022/07/10 09:09:18;;;;;;;4.55;2.42;;;;;;;22.62;nan;100249.09;5034864;28;20013;-72
2022/07/10 09:11:44;;;;;;;6.80;2.25;;;;;;;22.68;nan;100224.50;5054490;28;20037;-71
2022/07/10 09:14:14;;;;;;;4.18;1.83;;;;;;;22.71;nan;100241.88;5048877;28;20052;-73
2022/07/10 09:16:42;;;;;;;2.13;1.83;;;;;;;22.85;nan;100257.91;5030200;28;20042;-72
2022/07/10 09:19:22;;;;;;;4.38;1.83;;;;;;;22.90;nan;100316.81;5033328;28;20120;-73
2022/07/10 09:21:54;;;;;;;2.22;1.80;;;;;;;22.90;nan;100164.56;5035933;28;20034;-74
2022/07/10 09:24:21;;;;;;;6.35;2.30;;;;;;;23.09;nan;100246.78;5050097;28;20047;-76
2022/07/10 09:26:55;;;;;;;3.58;1.95;;;;;;;23.11;nan;100261.47;5054619;28;20041;-73
2022/07/10 09:29:21;;;;;;;4.80;1.90;;;;;;;23.14;nan;100212.50;5051470;28;20032;-73
2022/07/10 09:31:54;;;;;;;3.55;1.92;;;;;;;23.23;nan;100228.63;5053141;28;20046;-72
2022/07/10 09:34:46;;;;;;;3.90;2.10;;;;;;;23.36;nan;100251.09;5048496;28;20026;-72
2022/07/10 09:37:22;;;;;;;2.95;1.80;;;;;;;23.47;nan;100244.31;5054493;28;20026;-73
2022/07/10 09:39:51;;;;;;;2.53;2.03;;;;;;;;;;5050039;28;20042;-73
2022/07/10 09:42:27;;;;;;;4.50;1.95;;;;;;;23.67;nan;100240.19;5050946;28;20034;-73
2022/07/10 09:45:12;;;;;;;3.65;2.00;;;;;;;23.65;nan;100206.66;5044107;28;20037;-72
2022/07/10 09:47:53;;;;;;;7.03;1.83;;;;;;;23.77;nan;100228.34;5029738;28;20471;-73
2022/07/10 09:50:22;;;;;;;3.97;2.15;;;;;;;23.96;nan;100228.81;5047076;28;20067;-72
2022/07/10 09:53:06;;;;;;;5.05;2.00;;;;;;;24.08;nan;100225.47;5021777;28;20387;-72
2022/07/10 09:55:34;;;;;;;5.57;2.00;;;;;;;24.05;nan;100250.31;5029520;28;20033;-72
2022/07/10 09:57:59;;;;;;;5.60;1.80;;;;;;;24.10;nan;100217.88;5032655;28;20041;-73
2022/07/10 10:00:30;;;;;;;3.03;1.88;;;;;;;24.08;nan;100220.09;5047396;28;20041;-72
2022/07/10 10:03:06;;;;;;;3.60;1.70;;;;;;;24.25;nan;100253.44;5023657;28;20034;-72
2022/07/10 10:05:37;;;;;;;6.38;1.80;;;;;;;24.26;nan;100226.22;5031321;28;20033;-70
2022/07/10 10:08:16;;;;;;;6.43;1.75;;;;;;;24.26;nan;100249.66;5027443;28;20219;-72
2022/07/10 10:10:47;;;;;;;2.85;1.50;;;;;;;24.27;nan;100232.41;5034715;28;20137;-72
2022/07/10 10:13:17;;;;;;;4.93;3.10;;;;;;;24.29;nan;100233.66;5026469;28;20461;-74
2022/07/10 10:15:43;;;;;;;8.15;3.80;;;;;;;24.46;nan;100221.25;5030354;28;20056;-73
2022/07/10 10:18:11;;;;;;;2.83;1.80;;;;;;;24.48;nan;100262.91;5020481;28;20095;-73
2022/07/10 10:20:38;;;;;;;5.30;1.70;;;;;;;24.59;nan;100217.56;5028895;28;20044;-74
2022/07/10 10:23:05;;;;;;;4.40;1.42;;;;;;;24.54;nan;100253.56;5033169;28;20099;-73
2022/07/10 10:25:33;;;;;;;6.00;2.80;;;;;;;24.47;nan;100247.06;5032112;28;20040;-75
2022/07/10 10:28:01;;;;;;;5.45;1.98;;;;;;;24.51;nan;100210.34;5028088;28;20033;-72
2022/07/10 10:30:28;;;;;;;3.55;1.83;;;;;;;24.50;nan;100222.22;5046519;28;20037;-73
2022/07/10 10:32:53;;;;;;;5.65;2.42;;;;;;;;;;5030287;28;20040;-73
2022/07/10 10:35:46;;;;;;;2.73;1.70;;;;;;;24.60;nan;100211.88;5026662;28;20037;-74
2022/07/10 10:38:13;;;;;;;3.08;1.63;;;;;;;24.59;nan;100274.09;5031102;28;20317;-73
2022/07/10 10:40:38;;;;;;;2.50;1.60;;;;;;;24.51;nan;100197.66;5032115;28;20132;-74
2022/07/10 10:43:23;;;;;;;4.40;1.90;;;;;;;24.68;nan;100204.09;5031108;28;20112;-72
2022/07/10 10:45:52;;;;;;;2.85;1.90;;;;;;;24.67;nan;100197.91;5030932;28;20488;-71
2022/07/10 10:48:20;;;;;;;3.40;1.77;;;;;;;;;;5031356;28;20034;-73
2022/07/10 10:50:51;;;;;;;2.03;1.50;;;;;;;24.61;nan;100224.25;5031294;28;20037;-73
2022/07/10 10:53:27;;;;;;;5.00;1.70;;;;;;;24.76;nan;100212.13;5030777;28;20028;-73
2022/07/10 10:56:05;;;;;;;1.88;1.65;;;;;;;24.88;nan;100235.69;5017343;28;20025;-67
2022/07/10 10:58:38;;;;;;;7.00;1.63;;;;;;;24.86;nan;100216.34;5022658;28;20048;-65
2022/07/10 11:01:25;;;;;;;5.63;1.80;;;;;;;24.82;nan;100201.94;5027769;28;20066;-66
2022/07/10 11:04:09;;;;;;;4.28;1.70;;;;;;;24.83;nan;100219.69;5031563;28;20030;-73
2022/07/10 11:06:52;;;;;;;3.33;1.70;;;;;;;24.91;nan;100200.00;5045402;28;20172;-72
2022/07/10 11:09:32;;;;;;;2.20;1.65;;;;;;;24.98;nan;100204.88;5027900;28;20518;-65
2022/07/10 11:12:05;;;;;;;7.05;1.48;;;;;;;25.03;nan;100172.34;5028798;28;20037;-66
2022/07/10 11:14:40;;;;;;;2.80;1.58;;;;;;;25.14;nan;100218.53;5027117;28;20034;-67
2022/07/10 11:17:06;;;;;;;2.15;1.40;;;;;;;25.02;nan;100186.91;5029563;28;20125;-73
2022/07/10 11:19:33;;;;;;;1.70;1.45;;;;;;;25.08;nan;100211.78;5033208;28;20435;-74
2022/07/10 11:22:14;;;;;;;1.55;1.30;;;;;;;24.99;nan;100209.13;5034547;28;20037;-72
2022/07/10 11:24:56;;;;;;;2.38;1.50;;;;;;;24.87;nan;100204.44;5054312;28;20539;-74
2022/07/10 11:27:31;;;;;;;4.00;1.50;;;;;;;24.83;nan;100200.84;5032714;28;20029;-73
2022/07/10 11:30:01;;;;;;;3.25;1.77;;;;;;;24.78;nan;100188.34;5026592;28;20040;-74
2022/07/10 11:32:28;;;;;;;2.22;1.50;;;;;;;24.70;nan;100194.56;5026410;28;20053;-66
2022/07/10 11:34:54;;;;;;;1.67;1.40;;;;;;;24.71;nan;100195.34;5030181;28;20043;-66
2022/07/10 11:37:20;;;;;;;4.18;1.55;;;;;;;24.70;nan;100188.41;5025670;28;20029;-73
2022/07/10 11:39:46;;;;;;;3.75;1.50;;;;;;;24.64;nan;100187.81;5027845;28;20030;-65
2022/07/10 11:42:11;;;;;;;5.20;1.90;;;;;;;24.60;nan;100205.72;5008627;28;20100;-65
2022/07/10 11:44:37;;;;;;;3.38;1.48;;;;;;;24.63;nan;100178.13;5021374;28;20029;-72
2022/07/10 11:47:04;;;;;;;3.25;1.70;;;;;;;24.69;nan;100184.91;5033505;28;20040;-74
2022/07/10 11:49:30;;;;;;;3.45;1.73;;;;;;;24.71;nan;100244.63;5031648;28;20083;-72
2022/07/10 11:52:01;;;;;;;4.70;1.65;;;;;;;24.83;nan;100169.31;5029338;28;20037;-71
2022/07/10 11:54:27;;;;;;;2.38;1.52;;;;;;;25.06;nan;100174.38;5026988;28;20044;-74
2022/07/10 11:56:53;;;;;;;3.35;2.35;;;;;;;25.11;nan;100200.34;5027038;28;20052;-73
2022/07/10 11:59:25;;;;;;;3.20;1.77;;;;;;;25.10;nan;100178.00;5018674;28;20461;-72
2022/07/10 12:01:52;;;;;;;2.67;1.40;;;;;;;25.10;nan;100193.41;5031274;28;20033;-71
2022/07/10 12:04:24;;;;;;;3.05;1.25;;;;;;;25.08;nan;100160.59;5025165;28;20033;-74
2022/07/10 12:06:51;;;;;;;2.90;1.35;;;;;;;;;;5027882;28;20479;-73
2022/07/10 12:09:18;;;;;;;3.05;2.10;;;;;;;24.95;nan;100173.19;5029132;28;20029;-72
2022/07/10 12:11:57;;;;;;;5.32;3.00;;;;;;;24.98;nan;100186.81;5026860;28;20045;-74
2022/07/10 12:14:22;;;;;;;2.35;1.63;;;;;;;24.96;nan;100196.31;5025481;28;20518;-71
2022/07/10 12:16:53;;;;;;;4.93;2.28;;;;;;;24.90;nan;100189.53;5020745;28;20057;-70
2022/07/10 12:19:24;;;;;;;6.43;1.58;;;;;;;24.84;nan;100176.25;5026742;28;20072;-72
2022/07/10 12:21:51;;;;;;;3.08;1.10;;;;;;;24.82;nan;100178.50;5031318;28;20391;-73
2022/07/10 12:24:21;;;;;;;2.53;1.30;;;;;;;24.83;nan;100190.84;5026617;28;20108;-70
2022/07/10 12:26:48;;;;;;;4.15;1.50;;;;;;;24.88;nan;100187.19;5025066;28;20032;-71
2022/07/10 12:29:20;;;;;;;2.10;1.27;;;;;;;24.83;nan;100187.38;5028952;28;20041;-71
2022/07/10 12:31:47;;;;;;;2.08;1.38;;;;;;;24.87;nan;100192.91;5029785;28;20100;-71
2022/07/10 12:34:13;;;;;;;2.85;1.48;;;;;;;24.83;nan;100177.41;5027808;28;20112;-72
2022/07/10 12:36:50;;;;;;;3.60;1.83;;;;;;;24.78;nan;100177.59;5031605;28;20026;-71
2022/07/10 12:39:18;;;;;;;4.07;1.48;;;;;;;24.74;nan;100178.56;5028081;28;20637;-70
2022/07/10 12:42:04;;;;;;;9.80;1.77;;;;;;;24.59;nan;100198.72;5030440;28;20037;-70
2022/07/10 12:44:38;;;;;;;4.75;1.80;;;;;;;24.49;nan;100178.34;5029528;28;20385;-71
2022/07/10 12:47:12;;;;;;;4.10;1.65;;;;;;;24.26;nan;100203.91;5032743;28;20408;-71